sensor_id;sensor_type;location;lat;lon;timestamp;pressure;altitude;pressure_sealevel;temperature;humidity
30302;BME280;17111;52.130;5.028;2023-05-02T00:00:49;102157.00;;;19.33;50.78
30302;BME280;17111;52.130;5.028;2023-05-02T00:03:16;102155.31;;;19.32;50.81
30302;BME280;17111;52.130;5.028;2023-05-02T00:05:43;102154.47;;;19.31;50.45
30302;BME280;17111;52.130;5.028;2023-05-02T00:08:10;102158.00;;;19.32;50.25
30302;BME280;17111;52.130;5.028;2023-05-02T00:10:37;102153.59;;;19.31;50.57
30302;BME280;17111;52.130;5.028;2023-05-02T00:13:05;102160.81;;;19.30;50.65
30302;BME280;17111;52.130;5.028;2023-05-02T00:15:32;102153.72;;;19.29;50.51
30302;BME280;17111;52.130;5.028;2023-05-02T00:17:58;102161.78;;;19.29;50.42
30302;BME280;17111;52.130;5.028;2023-05-02T00:20:25;102158.25;;;19.29;50.35
30302;BME280;17111;52.130;5.028;2023-05-02T00:22:53;102162.78;;;19.28;50.39
30302;BME280;17111;52.130;5.028;2023-05-02T00:25:20;102163.63;;;19.29;50.80
30302;BME280;17111;52.130;5.028;2023-05-02T00:27:47;102161.06;;;19.27;50.65
30302;BME280;17111;52.130;5.028;2023-05-02T00:30:16;102170.00;;;19.28;50.26
30302;BME280;17111;52.130;5.028;2023-05-02T00:32:43;102170.97;;;19.27;50.82
30302;BME280;17111;52.130;5.028;2023-05-02T00:35:10;102167.44;;;19.26;50.90
30302;BME280;17111;52.130;5.028;2023-05-02T00:37:37;102168.41;;;19.25;50.83
30302;BME280;17111;52.130;5.028;2023-05-02T00:40:05;102172.94;;;19.24;50.31
30302;BME280;17111;52.130;5.028;2023-05-02T00:42:33;102172.94;;;19.24;50.86
30302;BME280;17111;52.130;5.028;2023-05-02T00:45:05;102168.53;;;19.23;50.97
30302;BME280;17111;52.130;5.028;2023-05-02T00:47:32;102163.16;;;19.23;50.57
30302;BME280;17111;52.130;5.028;2023-05-02T00:50:00;102163.16;;;19.23;50.50
30302;BME280;17111;52.130;5.028;2023-05-02T00:52:27;102168.53;;;19.23;50.63
30302;BME280;17111;52.130;5.028;2023-05-02T00:54:54;102166.84;;;19.22;50.55
30302;BME280;17111;52.130;5.028;2023-05-02T00:57:21;102184.81;;;19.22;50.47
30302;BME280;17111;52.130;5.028;2023-05-02T00:59:48;102175.88;;;19.21;50.84
30302;BME280;17111;52.130;5.028;2023-05-02T01:02:49;102182.22;;;19.20;50.79
30302;BME280;17111;52.130;5.028;2023-05-02T01:05:37;102185.91;;;19.19;50.83
30302;BME280;17111;52.130;5.028;2023-05-02T01:08:19;102193.84;;;19.21;51.15
30302;BME280;17111;52.130;5.028;2023-05-02T01:11:03;102192.13;;;19.20;50.79
30302;BME280;17111;52.130;5.028;2023-05-02T01:13:33;102198.38;;;19.20;50.38
30302;BME280;17111;52.130;5.028;2023-05-02T01:16:02;102194.97;;;19.18;51.18
30302;BME280;17111;52.130;5.028;2023-05-02T01:18:32;102200.34;;;19.18;50.70
30302;BME280;17111;52.130;5.028;2023-05-02T01:21:04;102203.97;;;19.17;50.64
30302;BME280;17111;52.130;5.028;2023-05-02T01:27:11;102210.50;;;19.15;51.26
30302;BME280;17111;52.130;5.028;2023-05-02T01:29:42;102211.34;;;19.15;51.23
30302;BME280;17111;52.130;5.028;2023-05-02T01:32:11;102215.88;;;19.15;50.61
30302;BME280;17111;52.130;5.028;2023-05-02T01:34:42;102216.84;;;19.14;50.92
30302;BME280;17111;52.130;5.028;2023-05-02T01:37:11;102219.66;;;19.12;50.59
30302;BME280;17111;52.130;5.028;2023-05-02T01:39:39;102220.63;;;19.11;50.83
30302;BME280;17111;52.130;5.028;2023-05-02T01:42:08;102231.38;;;19.11;50.89
30302;BME280;17111;52.130;5.028;2023-05-02T01:44:37;102229.69;;;19.10;51.26
30302;BME280;17111;52.130;5.028;2023-05-02T01:47:06;102223.47;;;19.10;50.54
30302;BME280;17111;52.130;5.028;2023-05-02T01:49:35;102225.28;;;19.09;50.89
30302;BME280;17111;52.130;5.028;2023-05-02T01:52:06;102228.94;;;19.08;50.94
30302;BME280;17111;52.130;5.028;2023-05-02T01:54:34;102232.47;;;19.09;50.62
30302;BME280;17111;52.130;5.028;2023-05-02T01:57:04;102232.63;;;19.07;50.71
30302;BME280;17111;52.130;5.028;2023-05-02T01:59:33;102246.06;;;19.07;50.82
30302;BME280;17111;52.130;5.028;2023-05-02T02:02:01;102257.78;;;19.06;51.05
30302;BME280;17111;52.130;5.028;2023-05-02T02:04:28;102256.06;;;19.05;50.71
30302;BME280;17111;52.130;5.028;2023-05-02T02:07:07;102259.75;;;19.04;51.10
30302;BME280;17111;52.130;5.028;2023-05-02T02:09:35;102259.75;;;19.04;51.06
30302;BME280;17111;52.130;5.028;2023-05-02T02:12:06;102273.19;;;19.04;51.38
30302;BME280;17111;52.130;5.028;2023-05-02T02:14:36;102274.16;;;19.03;50.93
30302;BME280;17111;52.130;5.028;2023-05-02T02:17:16;102274.31;;;19.02;51.23
30302;BME280;17111;52.130;5.028;2023-05-02T02:19:47;102275.25;;;19.01;50.86
30302;BME280;17111;52.130;5.028;2023-05-02T02:22:17;102277.84;;;19.02;51.00
30302;BME280;17111;52.130;5.028;2023-05-02T02:24:46;102285.06;;;19.02;50.82
30302;BME280;17111;52.130;5.028;2023-05-02T02:27:14;102283.31;;;19.01;51.16
30302;BME280;17111;52.130;5.028;2023-05-02T02:29:40;102292.38;;;18.99;51.03
30302;BME280;17111;52.130;5.028;2023-05-02T02:32:07;102283.59;;;18.97;51.05
30302;BME280;17111;52.130;5.028;2023-05-02T02:34:33;102289.81;;;18.98;50.91
30302;BME280;17111;52.130;5.028;2023-05-02T02:37:04;102285.53;;;18.95;51.07
30302;BME280;17111;52.130;5.028;2023-05-02T02:40:07;102296.28;;;18.95;51.47
30302;BME280;17111;52.130;5.028;2023-05-02T02:42:50;102291.75;;;18.96;51.37
30302;BME280;17111;52.130;5.028;2023-05-02T02:45:21;102299.09;;;18.94;51.22
30302;BME280;17111;52.130;5.028;2023-05-02T02:50:58;102300.91;;;18.93;51.11
30302;BME280;17111;52.130;5.028;2023-05-02T02:53:43;102306.41;;;18.92;51.19
30302;BME280;17111;52.130;5.028;2023-05-02T02:56:14;102308.97;;;18.93;51.23
30302;BME280;17111;52.130;5.028;2023-05-02T02:58:47;102317.16;;;18.92;51.26
30302;BME280;17111;52.130;5.028;2023-05-02T03:01:20;102317.16;;;18.92;50.77
30302;BME280;17111;52.130;5.028;2023-05-02T03:03:48;102318.16;;;18.91;51.07
30302;BME280;17111;52.130;5.028;2023-05-02T03:06:16;102322.78;;;18.89;51.34
30302;BME280;17111;52.130;5.028;2023-05-02T03:08:44;102328.16;;;18.89;51.11
30302;BME280;17111;52.130;5.028;2023-05-02T03:11:11;102333.53;;;18.89;51.24
30302;BME280;17111;52.130;5.028;2023-05-02T03:13:37;102338.03;;;18.88;51.37
30302;BME280;17111;52.130;5.028;2023-05-02T03:18:58;102339.03;;;18.87;51.12
30302;BME280;17111;52.130;5.028;2023-05-02T03:21:25;102343.56;;;18.87;51.45
30302;BME280;17111;52.130;5.028;2023-05-02T03:23:51;102349.91;;;18.86;51.33
30302;BME280;17111;52.130;5.028;2023-05-02T03:26:18;102353.56;;;18.85;51.16
30302;BME280;17111;52.130;5.028;2023-05-02T03:28:45;102355.38;;;18.84;50.75
30302;BME280;17111;52.130;5.028;2023-05-02T03:31:12;102362.59;;;18.84;50.99
30302;BME280;17111;52.130;5.028;2023-05-02T03:33:40;102360.75;;;18.84;51.30
30302;BME280;17111;52.130;5.028;2023-05-02T03:36:06;102361.88;;;18.82;50.74
30302;BME280;17111;52.130;5.028;2023-05-02T03:38:33;102367.13;;;18.83;51.02
30302;BME280;17111;52.130;5.028;2023-05-02T03:40:59;102366.28;;;18.83;51.23
30302;BME280;17111;52.130;5.028;2023-05-02T03:43:26;102375.31;;;18.82;51.02
30302;BME280;17111;52.130;5.028;2023-05-02T03:45:53;102374.44;;;18.81;50.93
30302;BME280;17111;52.130;5.028;2023-05-02T03:48:19;102378.09;;;18.80;50.94
30302;BME280;17111;52.130;5.028;2023-05-02T03:50:46;102368.22;;;18.81;51.29
30302;BME280;17111;52.130;5.028;2023-05-02T03:53:14;102371.88;;;18.80;51.43
30302;BME280;17111;52.130;5.028;2023-05-02T03:55:42;102380.06;;;18.78;51.29
30302;BME280;17111;52.130;5.028;2023-05-02T03:58:11;102368.47;;;18.78;51.16
30302;BME280;17111;52.130;5.028;2023-05-02T04:00:38;102375.56;;;18.79;50.74
30302;BME280;17111;52.130;5.028;2023-05-02T04:03:05;102373.84;;;18.78;50.77
30302;BME280;17111;52.130;5.028;2023-05-02T04:05:32;102376.53;;;18.78;51.26
30302;BME280;17111;52.130;5.028;2023-05-02T04:08:00;102390.91;;;18.77;51.26
30302;BME280;17111;52.130;5.028;2023-05-02T04:10:27;102393.59;;;18.77;51.29
30302;BME280;17111;52.130;5.028;2023-05-02T04:12:53;102390.06;;;18.76;51.02
30302;BME280;17111;52.130;5.028;2023-05-02T04:15:20;102390.19;;;18.74;50.93
30302;BME280;17111;52.130;5.028;2023-05-02T04:17:46;102398.25;;;18.74;51.05
30302;BME280;17111;52.130;5.028;2023-05-02T04:20:13;102408.16;;;18.74;50.93
30302;BME280;17111;52.130;5.028;2023-05-02T04:22:41;102405.56;;;18.72;51.27
30302;BME280;17111;52.130;5.028;2023-05-02T04:25:07;102409.22;;;18.71;51.41
30302;BME280;17111;52.130;5.028;2023-05-02T04:27:34;102414.47;;;18.73;51.44
30302;BME280;17111;52.130;5.028;2023-05-02T04:30:01;102419.59;;;18.76;51.36
30302;BME280;17111;52.130;5.028;2023-05-02T04:32:28;102422.78;;;18.81;50.76
30302;BME280;17111;52.130;5.028;2023-05-02T04:34:54;102428.69;;;18.86;51.28
30302;BME280;17111;52.130;5.028;2023-05-02T04:37:21;102423.78;;;18.91;51.22
30302;BME280;17111;52.130;5.028;2023-05-02T04:39:48;102433.19;;;18.97;50.88
30302;BME280;17111;52.130;5.028;2023-05-02T04:42:14;102436.38;;;19.02;50.59
30302;BME280;17111;52.130;5.028;2023-05-02T04:44:41;102438.56;;;19.08;50.63
30302;BME280;17111;52.130;5.028;2023-05-02T04:47:07;102445.41;;;19.12;50.56
30302;BME280;17111;52.130;5.028;2023-05-02T04:49:34;102441.63;;;19.15;50.53
30302;BME280;17111;52.130;5.028;2023-05-02T04:52:01;102452.16;;;19.18;50.15
30302;BME280;17111;52.130;5.028;2023-05-02T04:54:27;102451.03;;;19.20;49.95
30302;BME280;17111;52.130;5.028;2023-05-02T04:56:54;102455.31;;;19.23;50.06
30302;BME280;17111;52.130;5.028;2023-05-02T04:59:21;102466.91;;;19.23;50.03
30302;BME280;17111;52.130;5.028;2023-05-02T05:01:48;102465.94;;;19.24;49.79
30302;BME280;17111;52.130;5.028;2023-05-02T05:04:14;102469.38;;;19.27;50.21
30302;BME280;17111;52.130;5.028;2023-05-02T05:06:41;102466.69;;;19.27;49.93
30302;BME280;17111;52.130;5.028;2023-05-02T05:09:08;102472.91;;;19.27;49.71
30302;BME280;17111;52.130;5.028;2023-05-02T05:11:34;102473.78;;;19.28;49.65
30302;BME280;17111;52.130;5.028;2023-05-02T05:14:01;102472.91;;;19.27;50.10
30302;BME280;17111;52.130;5.028;2023-05-02T05:16:29;102480.00;;;19.28;49.99
30302;BME280;17111;52.130;5.028;2023-05-02T05:18:56;102485.38;;;19.28;50.31
30302;BME280;17111;52.130;5.028;2023-05-02T05:21:23;102483.53;;;19.29;49.53
30302;BME280;17111;52.130;5.028;2023-05-02T05:23:49;102486.22;;;19.29;49.74
30302;BME280;17111;52.130;5.028;2023-05-02T05:26:16;102484.38;;;19.29;50.23
30302;BME280;17111;52.130;5.028;2023-05-02T05:28:43;102498.72;;;19.30;49.51
30302;BME280;17111;52.130;5.028;2023-05-02T05:31:11;102502.25;;;19.30;49.43
30302;BME280;17111;52.130;5.028;2023-05-02T05:33:42;102497.81;;;19.29;49.84
30302;BME280;17111;52.130;5.028;2023-05-02T05:36:10;102503.22;;;19.29;49.50
30302;BME280;17111;52.130;5.028;2023-05-02T05:38:37;102505.91;;;19.29;50.07
30302;BME280;17111;52.130;5.028;2023-05-02T05:41:04;102507.88;;;19.27;49.87
30302;BME280;17111;52.130;5.028;2023-05-02T05:43:32;102513.25;;;19.27;49.89
30302;BME280;17111;52.130;5.028;2023-05-02T05:45:59;102508.84;;;19.26;50.00
30302;BME280;17111;52.130;5.028;2023-05-02T05:48:25;102523.38;;;19.23;49.29
30302;BME280;17111;52.130;5.028;2023-05-02T05:50:52;102521.78;;;19.21;49.25
30302;BME280;17111;52.130;5.028;2023-05-02T05:53:19;102530.19;;;19.16;49.56
30302;BME280;17111;52.130;5.028;2023-05-02T05:55:45;102533.13;;;19.13;49.43
30302;BME280;17111;52.130;5.028;2023-05-02T05:58:12;102538.75;;;19.10;50.01
30302;BME280;17111;52.130;5.028;2023-05-02T06:00:39;102538.13;;;19.07;50.00
30302;BME280;17111;52.130;5.028;2023-05-02T06:03:06;102547.41;;;19.03;49.89
30302;BME280;17111;52.130;5.028;2023-05-02T06:05:35;102553.16;;;18.98;49.44
30302;BME280;17111;52.130;5.028;2023-05-02T06:08:02;102552.63;;;18.93;49.73
30302;BME280;17111;52.130;5.028;2023-05-02T06:10:30;102566.31;;;18.90;49.65
30302;BME280;17111;52.130;5.028;2023-05-02T06:12:57;102559.47;;;18.86;50.12
30302;BME280;17111;52.130;5.028;2023-05-02T06:15:24;102571.16;;;18.85;50.48
30302;BME280;17111;52.130;5.028;2023-05-02T06:17:50;102575.81;;;18.83;50.12
30302;BME280;17111;52.130;5.028;2023-05-02T06:20:17;102574.19;;;18.80;50.17
30302;BME280;17111;52.130;5.028;2023-05-02T06:22:44;102575.31;;;18.78;50.25
30302;BME280;17111;52.130;5.028;2023-05-02T06:25:11;102577.13;;;18.77;50.66
30302;BME280;17111;52.130;5.028;2023-05-02T06:27:37;102586.16;;;18.76;50.08
30302;BME280;17111;52.130;5.028;2023-05-02T06:30:05;102581.63;;;18.77;49.99
30302;BME280;17111;52.130;5.028;2023-05-02T06:32:32;102589.69;;;18.77;50.32
30302;BME280;17111;52.130;5.028;2023-05-02T06:34:58;102588.00;;;18.76;50.38
30302;BME280;17111;52.130;5.028;2023-05-02T06:37:25;102589.81;;;18.75;50.45
30302;BME280;17111;52.130;5.028;2023-05-02T06:39:52;102594.13;;;18.78;50.45
30302;BME280;17111;52.130;5.028;2023-05-02T06:42:22;102602.19;;;18.78;49.83
30302;BME280;17111;52.130;5.028;2023-05-02T06:44:50;102613.78;;;18.78;50.01
30302;BME280;17111;52.130;5.028;2023-05-02T06:47:16;102619.03;;;18.80;50.00
30302;BME280;17111;52.130;5.028;2023-05-02T06:49:43;102625.25;;;18.80;50.63
30302;BME280;17111;52.130;5.028;2023-05-02T06:52:09;102630.63;;;18.80;49.88
30302;BME280;17111;52.130;5.028;2023-05-02T06:54:36;102639.53;;;18.81;49.82
30302;BME280;17111;52.130;5.028;2023-05-02T06:57:04;102635.91;;;18.82;50.34
30302;BME280;17111;52.130;5.028;2023-05-02T06:59:30;102637.69;;;18.81;49.58
30302;BME280;17111;52.130;5.028;2023-05-02T07:01:57;102642.97;;;18.83;49.73
30302;BME280;17111;52.130;5.028;2023-05-02T07:04:24;102646.50;;;18.83;49.76
30302;BME280;17111;52.130;5.028;2023-05-02T07:06:51;102651.88;;;18.83;50.23
30302;BME280;17111;52.130;5.028;2023-05-02T07:09:18;102650.06;;;18.84;50.10
30302;BME280;17111;52.130;5.028;2023-05-02T07:11:45;102656.28;;;18.84;49.87
30302;BME280;17111;52.130;5.028;2023-05-02T07:14:11;102661.66;;;18.84;49.91
30302;BME280;17111;52.130;5.028;2023-05-02T07:16:38;102659.81;;;18.85;49.90
30302;BME280;17111;52.130;5.028;2023-05-02T07:19:04;102672.31;;;18.86;49.67
30302;BME280;17111;52.130;5.028;2023-05-02T07:21:32;102664.25;;;18.86;49.91
30302;BME280;17111;52.130;5.028;2023-05-02T07:23:58;102670.34;;;18.88;50.37
30302;BME280;17111;52.130;5.028;2023-05-02T07:26:27;102669.38;;;18.89;49.53
30302;BME280;17111;52.130;5.028;2023-05-02T07:28:53;102684.53;;;18.90;50.29
30302;BME280;17111;52.130;5.028;2023-05-02T07:31:20;102682.72;;;18.90;49.77
30302;BME280;17111;52.130;5.028;2023-05-02T07:33:46;102683.44;;;18.92;49.87
30302;BME280;17111;52.130;5.028;2023-05-02T07:36:13;102686.03;;;18.94;50.17
30302;BME280;17111;52.130;5.028;2023-05-02T07:38:39;102683.22;;;18.95;49.47
30302;BME280;17111;52.130;5.028;2023-05-02T07:41:06;102684.06;;;18.96;49.72
30302;BME280;17111;52.130;5.028;2023-05-02T07:43:33;102681.28;;;18.97;49.68
30302;BME280;17111;52.130;5.028;2023-05-02T07:46:03;102692.88;;;18.98;49.83
30302;BME280;17111;52.130;5.028;2023-05-02T07:48:30;102688.38;;;18.98;49.11
30302;BME280;17111;52.130;5.028;2023-05-02T07:51:05;102693.75;;;18.98;49.17
30302;BME280;17111;52.130;5.028;2023-05-02T07:53:32;102691.78;;;19.01;49.41
30302;BME280;17111;52.130;5.028;2023-05-02T07:55:59;102704.34;;;19.00;48.89
30302;BME280;17111;52.130;5.028;2023-05-02T07:58:26;102700.69;;;19.01;48.88
30302;BME280;17111;52.130;5.028;2023-05-02T08:00:53;102699.84;;;19.01;49.49
30302;BME280;17111;52.130;5.028;2023-05-02T08:03:19;102702.53;;;19.01;49.33
30302;BME280;17111;52.130;5.028;2023-05-02T08:05:47;102710.50;;;19.02;48.90
30302;BME280;17111;52.130;5.028;2023-05-02T08:08:13;102712.34;;;19.02;49.56
30302;BME280;17111;52.130;5.028;2023-05-02T08:10:40;102709.50;;;19.03;49.57
30302;BME280;17111;52.130;5.028;2023-05-02T08:13:06;102713.06;;;19.04;49.11
30302;BME280;17111;52.130;5.028;2023-05-02T08:15:33;102716.59;;;19.04;49.22
30302;BME280;17111;52.130;5.028;2023-05-02T08:18:00;102717.44;;;19.05;49.38
30302;BME280;17111;52.130;5.028;2023-05-02T08:20:27;102714.75;;;19.05;49.51
30302;BME280;17111;52.130;5.028;2023-05-02T08:22:53;102723.69;;;19.05;48.95
30302;BME280;17111;52.130;5.028;2023-05-02T08:25:20;102721.88;;;19.06;49.49
30302;BME280;17111;52.130;5.028;2023-05-02T08:27:47;102724.56;;;19.06;49.28
30302;BME280;17111;52.130;5.028;2023-05-02T08:30:13;102723.59;;;19.07;49.17
30302;BME280;17111;52.130;5.028;2023-05-02T08:32:40;102729.81;;;19.07;48.67
30302;BME280;17111;52.130;5.028;2023-05-02T08:35:07;102736.03;;;19.08;48.78
30302;BME280;17111;52.130;5.028;2023-05-02T08:37:34;102732.38;;;19.09;49.58
30302;BME280;17111;52.130;5.028;2023-05-02T08:40:01;102737.66;;;19.10;48.61
30302;BME280;17111;52.130;5.028;2023-05-02T08:42:32;102741.19;;;19.11;48.97
30302;BME280;17111;52.130;5.028;2023-05-02T08:44:59;102746.44;;;19.12;48.63
30302;BME280;17111;52.130;5.028;2023-05-02T08:47:28;102747.22;;;19.14;48.48
30302;BME280;17111;52.130;5.028;2023-05-02T08:49:55;102745.25;;;19.16;48.63
30302;BME280;17111;52.130;5.028;2023-05-02T08:52:23;102755.91;;;19.18;48.10
30302;BME280;17111;52.130;5.028;2023-05-02T08:54:50;102755.91;;;19.18;47.65
30302;BME280;17111;52.130;5.028;2023-05-02T08:57:17;102755.00;;;19.17;48.56
30302;BME280;17111;52.130;5.028;2023-05-02T08:59:44;102760.28;;;19.19;48.18
30302;BME280;17111;52.130;5.028;2023-05-02T09:02:27;102759.66;;;19.15;47.63
30302;BME280;17111;52.130;5.028;2023-05-02T09:05:05;102761.28;;;19.18;47.49
30302;BME280;17111;52.130;5.028;2023-05-02T09:07:46;102772.13;;;19.16;47.60
30302;BME280;17111;52.130;5.028;2023-05-02T09:10:14;102758.59;;;19.18;48.04
30302;BME280;17111;52.130;5.028;2023-05-02T09:12:41;102756.75;;;19.18;47.89
30302;BME280;17111;52.130;5.028;2023-05-02T09:15:18;102765.53;;;19.20;47.80
30302;BME280;17111;52.130;5.028;2023-05-02T09:17:47;102766.31;;;19.22;48.51
30302;BME280;17111;52.130;5.028;2023-05-02T09:20:15;102769.84;;;19.23;47.88
30302;BME280;17111;52.130;5.028;2023-05-02T09:22:49;102770.69;;;19.23;48.06
30302;BME280;17111;52.130;5.028;2023-05-02T09:25:17;102778.63;;;19.25;47.52
30302;BME280;17111;52.130;5.028;2023-05-02T09:27:56;102782.19;;;19.26;48.48
30302;BME280;17111;52.130;5.028;2023-05-02T09:30:27;102784.78;;;19.27;47.92
30302;BME280;17111;52.130;5.028;2023-05-02T09:32:53;102787.47;;;19.27;47.94
30302;BME280;17111;52.130;5.028;2023-05-02T09:35:23;102790.16;;;19.27;48.02
30302;BME280;17111;52.130;5.028;2023-05-02T09:37:56;102791.88;;;19.28;48.10
30302;BME280;17111;52.130;5.028;2023-05-02T09:40:23;102790.88;;;19.29;48.07
30302;BME280;17111;52.130;5.028;2023-05-02T09:42:51;102803.38;;;19.30;47.93
30302;BME280;17111;52.130;5.028;2023-05-02T09:45:24;102794.34;;;19.31;48.12
30302;BME280;17111;52.130;5.028;2023-05-02T09:47:51;102800.44;;;19.33;48.35
30302;BME280;17111;52.130;5.028;2023-05-02T09:50:35;102782.50;;;19.34;48.50
30302;BME280;17111;52.130;5.028;2023-05-02T09:53:08;102800.13;;;19.38;48.44
30302;BME280;17111;52.130;5.028;2023-05-02T09:55:36;102794.63;;;19.39;48.74
30302;BME280;17111;52.130;5.028;2023-05-02T09:58:03;102788.16;;;19.42;48.30
30302;BME280;17111;52.130;5.028;2023-05-02T10:00:38;102803.19;;;19.44;48.58
30302;BME280;17111;52.130;5.028;2023-05-02T10:03:06;102799.41;;;19.47;48.68
30302;BME280;17111;52.130;5.028;2023-05-02T10:05:36;102805.53;;;19.49;48.77
30302;BME280;17111;52.130;5.028;2023-05-02T10:08:05;102801.88;;;19.50;48.30
30302;BME280;17111;52.130;5.028;2023-05-02T10:10:35;102811.66;;;19.51;48.39
30302;BME280;17111;52.130;5.028;2023-05-02T10:13:03;102809.69;;;19.53;48.82
30302;BME280;17111;52.130;5.028;2023-05-02T10:15:32;102810.56;;;19.54;48.42
30302;BME280;17111;52.130;5.028;2023-05-02T10:17:59;102816.69;;;19.56;48.59
30302;BME280;17111;52.130;5.028;2023-05-02T10:20:35;102812.16;;;19.56;48.31
30302;BME280;17111;52.130;5.028;2023-05-02T10:23:03;102809.47;;;19.56;48.72
30302;BME280;17111;52.130;5.028;2023-05-02T10:25:32;102818.31;;;19.58;48.30
30302;BME280;17111;52.130;5.028;2023-05-02T10:27:58;102816.34;;;19.60;48.34
30302;BME280;17111;52.130;5.028;2023-05-02T10:30:25;102818.84;;;19.63;48.69
30302;BME280;17111;52.130;5.028;2023-05-02T10:32:52;102815.16;;;19.64;48.60
30302;BME280;17111;52.130;5.028;2023-05-02T10:35:22;102813.22;;;19.66;48.93
30302;BME280;17111;52.130;5.028;2023-05-02T10:37:51;102820.19;;;19.69;48.38
30302;BME280;17111;52.130;5.028;2023-05-02T10:40:18;102831.72;;;19.71;48.87
30302;BME280;17111;52.130;5.028;2023-05-02T10:42:46;102824.38;;;19.73;48.90
30302;BME280;17111;52.130;5.028;2023-05-02T10:45:32;102825.22;;;19.73;49.01
30302;BME280;17111;52.130;5.028;2023-05-02T10:48:19;102833.06;;;19.77;48.80
30302;BME280;17111;52.130;5.028;2023-05-02T10:50:58;102832.09;;;19.78;48.55
30302;BME280;17111;52.130;5.028;2023-05-02T10:53:32;102841.75;;;19.80;48.39
30302;BME280;17111;52.130;5.028;2023-05-02T10:56:18;102836.38;;;19.80;49.39
30302;BME280;17111;52.130;5.028;2023-05-02T10:58:53;102836.16;;;19.83;48.73
30302;BME280;17111;52.130;5.028;2023-05-02T11:01:38;102837.88;;;19.84;49.28
30302;BME280;17111;52.130;5.028;2023-05-02T11:04:07;102837.00;;;19.84;48.94
30302;BME280;17111;52.130;5.028;2023-05-02T11:06:36;102837.88;;;19.84;48.49
30302;BME280;17111;52.130;5.028;2023-05-02T11:11:45;102846.69;;;19.86;48.77
30302;BME280;17111;52.130;5.028;2023-05-02T11:24:44;102855.38;;;19.90;48.66
30302;BME280;17111;52.130;5.028;2023-05-02T11:29:55;102844.50;;;19.91;48.85
30302;BME280;17111;52.130;5.028;2023-05-02T11:32:24;102842.53;;;19.93;47.96
30302;BME280;17111;52.130;5.028;2023-05-02T11:34:51;102831.78;;;19.93;48.80
30302;BME280;17111;52.130;5.028;2023-05-02T11:37:19;102836.06;;;19.96;48.23
30302;BME280;17111;52.130;5.028;2023-05-02T11:39:46;102848.53;;;19.97;48.16
30302;BME280;17111;52.130;5.028;2023-05-02T11:42:32;102846.84;;;19.96;48.34
30302;BME280;17111;52.130;5.028;2023-05-02T11:44:59;102853.69;;;20.00;48.48
30302;BME280;17111;52.130;5.028;2023-05-02T11:47:27;102843.78;;;20.01;48.47
30302;BME280;17111;52.130;5.028;2023-05-02T11:49:55;102848.19;;;20.02;47.82
30302;BME280;17111;52.130;5.028;2023-05-02T11:52:23;102855.41;;;20.01;48.19
30302;BME280;17111;52.130;5.028;2023-05-02T11:54:53;102865.22;;;20.02;48.25
30302;BME280;17111;52.130;5.028;2023-05-02T11:57:21;102853.47;;;20.03;48.05
30302;BME280;17111;52.130;5.028;2023-05-02T11:59:52;102859.72;;;20.04;48.38
30302;BME280;17111;52.130;5.028;2023-05-02T12:02:20;102869.50;;;20.05;48.05
30302;BME280;17111;52.130;5.028;2023-05-02T12:05:01;102859.47;;;20.07;48.12
30302;BME280;17111;52.130;5.028;2023-05-02T12:07:39;102879.28;;;20.06;47.55
30302;BME280;17111;52.130;5.028;2023-05-02T12:10:07;102875.63;;;20.07;47.49
30302;BME280;17111;52.130;5.028;2023-05-02T12:12:35;102877.34;;;20.08;47.44
30302;BME280;17111;52.130;5.028;2023-05-02T12:15:10;102884.44;;;20.09;47.71
30302;BME280;17111;52.130;5.028;2023-05-02T12:17:42;102869.13;;;20.09;47.99
30302;BME280;17111;52.130;5.028;2023-05-02T12:20:10;102878.06;;;20.10;48.12
30302;BME280;17111;52.130;5.028;2023-05-02T12:22:37;102876.25;;;20.10;47.46
30302;BME280;17111;52.130;5.028;2023-05-02T12:25:05;102886.91;;;20.12;47.45
30302;BME280;17111;52.130;5.028;2023-05-02T12:27:32;102887.75;;;20.12;47.60
30302;BME280;17111;52.130;5.028;2023-05-02T12:29:58;102895.84;;;20.12;47.29
30302;BME280;17111;52.130;5.028;2023-05-02T12:32:27;102889.47;;;20.13;47.65
30302;BME280;17111;52.130;5.028;2023-05-02T12:34:58;102902.81;;;20.15;47.74
30302;BME280;17111;52.130;5.028;2023-05-02T12:37:26;102895.59;;;20.15;46.91
30302;BME280;17111;52.130;5.028;2023-05-02T12:39:53;102903.56;;;20.17;47.51
30302;BME280;17111;52.130;5.028;2023-05-02T12:42:22;102897.31;;;20.16;46.97
30302;BME280;17111;52.130;5.028;2023-05-02T12:44:50;102903.44;;;20.18;47.48
30302;BME280;17111;52.130;5.028;2023-05-02T12:47:22;102899.03;;;20.17;47.48
30302;BME280;17111;52.130;5.028;2023-05-02T12:49:57;102901.63;;;20.19;47.43
30302;BME280;17111;52.130;5.028;2023-05-02T12:55:20;102901.50;;;20.20;46.83
30302;BME280;17111;52.130;5.028;2023-05-02T12:57:50;102895.25;;;20.20;47.12
30302;BME280;17111;52.130;5.028;2023-05-02T13:00:16;102905.16;;;20.19;46.59
30302;BME280;17111;52.130;5.028;2023-05-02T13:02:46;102898.91;;;20.19;46.74
30302;BME280;17111;52.130;5.028;2023-05-02T13:05:14;102912.25;;;20.20;47.06
30302;BME280;17111;52.130;5.028;2023-05-02T13:07:40;102907.84;;;20.19;46.97
30302;BME280;17111;52.130;5.028;2023-05-02T13:10:07;102908.84;;;20.18;47.02
30302;BME280;17111;52.130;5.028;2023-05-02T13:12:34;102895.38;;;20.18;46.43
30302;BME280;17111;52.130;5.028;2023-05-02T13:15:04;102908.84;;;20.18;46.93
30302;BME280;17111;52.130;5.028;2023-05-02T13:17:31;102908.84;;;20.18;46.53
30302;BME280;17111;52.130;5.028;2023-05-02T13:19:58;102903.44;;;20.18;46.80
30302;BME280;17111;52.130;5.028;2023-05-02T13:22:27;102916.03;;;20.18;46.33
30302;BME280;17111;52.130;5.028;2023-05-02T13:24:54;102905.25;;;20.18;46.26
30302;BME280;17111;52.130;5.028;2023-05-02T13:27:24;102915.19;;;20.17;46.77